Aérodrome :
LOGIN :

S'inscrire | Disclaimer

   EN    FR    IT 

 










Légende :    VFR   VFR Marginal   IFR   IFR Intensif   IFR Très Intensif
Visi : 
Plafond : 
>= 8 km
>= 3000ft
5 à 8 km
1000 à 3000 ft
1500m à 5 km
500 à 1000 ft
800 à 1500m
200 à 500 ft
< 800m
< 200 ft
Symboles :   Orages  Brouillard  Fortes neiges  Fortes précipitations  Vent > 20 kt
SIGMETs :   Divers  Orages  Givrage  Turbulence  Onde Orograph.  Cendres Volcan.






- Altitude de l'aérodrome : 160 ft
- Code IATA : FMO


EDDG - Münster Osnabrück Int.

DERNIER METAR :
  • 291920Z AUTO 21012KT 170V240 8000 -DZ OVC014 02/M01 Q1020 TEMPO BKN008

METARs EXPIRÉS :
  • 291850Z AUTO 21013KT 7000 -SN BKN016 02/M01 Q1021 TEMPO BKN013
  • 291820Z AUTO 22012KT 7000 -SNRA BKN016 BKN036 02/M01 Q1021 TEMPO BKN013
  • 291750Z AUTO 21011KT 180V240 8000 BKN015 BKN036 02/M01 Q1021 TEMPO BKN013
  • 291720Z AUTO 21012KT 180V240 7000 -DZ FEW013 BKN018 02/M01 Q1022 TEMPO BKN013

TAF TAF EDDG
Valide du 29 à 18h jusqu'au 30 à 18h UTC


291700Z 2918/3018 24011KT 9999 BKN015
TEMPO 2918/3007 BKN008
TEMPO 2921/3006 4000 DZRA
TEMPO 2922/3018 26015G25KT
PROB40
TEMPO 3011/3016 30020G30KT SHRA BKN020TCU



MET'MAP, la Météo Aéronautique d'un coup d'oeil ! - Copyright ORBIFLY Décembre 2007 - Disclaimer

ORBIFLY MET'MAP TEAM :

Programmation & Développement : Alexandra Zaïnal
Sur une idée originale de : Baudouin d'Aumeries
Soutien technique & logistique : Manuel Goepfert
Assistance : Marc-Olivier Méhu




SOURCES & CREDITS :

   NOAA